Terminal Aerodrome Forecast
Issued by NWS

Current Version | Previous Version | Text Only | Print | Product List | Glossary On
Versions: 1 2 3 4 5 6 7 8 9 10 11 12 13 14 15 16 17 18 19 20 21 22 23 24 25 26
000
FTUS45 KBYZ 032320
TAFLVM
TAF
KLVM 032320Z 0400/0424 08018G28KT P6SM VCSH SCT120 BKN180
     FM040400 09009KT P6SM SCT110 BKN220
     FM041900 09015KT P6SM VCTS SCT080CB BKN140=

USA.gov is the U.S. government's official web portal to all federal, state and local government web resources and services.